Flight Track Log - Related Links

Times and Time Zones

All times are in EDT time to prevent confusion due to time zone crossing. See the CTL13 flight status page for this flight to view local times or setup timezone preferences in your user account.

Time Position Orientation Groundspeed Altitude Reporting Facility
EDT Latitude Longitude Course Direction KTS MPH feet Rate Location/Type
Tue 18:45:44 41.5125 -81.7006 339° North 135 155 800  Level Cleveland Center
Tue 18:46:45 41.5458 -81.7178 339° North 139 160 1,700 1,156 Climbing Cleveland Center
Tue 18:47:33 41.5728 -81.7294 342° North 111 128 2,900 661 Climbing Cleveland Center
Tue 18:48:34 41.5869 -81.7769 292° West 153 176 2,900  Level Cleveland Center
Tue 18:49:35 41.6050 -81.8300 294° West 167 192 2,900  Level Cleveland Center
Tue 18:50:35 41.6106 -81.8939 277° West 169 194 2,900  Level Cleveland Center
Tue 18:51:36 41.6014 -81.9575 259° West 169 194 2,900  Level Cleveland Center
Tue 18:52:37 41.5861 -82.0183 251° West 173 199 2,900  Level Cleveland Center
Tue 18:53:37 41.5644 -82.0761 243° Southwest 175 201 2,900 248 Level Cleveland Center
Tue 18:54:38 41.5431 -82.1339 244° Southwest 173 199 3,400 545 Climbing Cleveland Center
Tue 18:55:38 41.5236 -82.1806 241° Southwest 134 154 4,000 236 Climbing Cleveland Center
Tue 18:56:45 41.5019 -82.2411 244° Southwest 169 194 3,900 -47 Descending Cleveland Center
Tue 18:57:46 41.4781 -82.2931 238° Southwest 161 185 3,900  Level Cleveland Center
Tue 18:58:46 41.4606 -82.3453 246° West 151 174 3,900  Level Cleveland Center
Tue 18:59:47 41.4411 -82.3947 242° Southwest 152 175 3,900 49 Level Cleveland Center
Tue 19:00:48 41.4258 -82.4442 248° West 152 175 4,000 50 Climbing Cleveland Center
Tue 19:01:48 41.4083 -82.4933 245° Southwest 144 166 4,000 -47 Level Cleveland Center
Tue 19:02:55 41.3883 -82.5536 246° West 146 168 3,900 -5 Descending Cleveland Center
Tue 19:04:00 41.3530 -82.5847 213° Southwest  Level FlightAware Approximate
Tue 19:11:00 41.1979 -82.8904 240° Southwest  Level FlightAware Approximate
Tue 19:12:00 41.1783 -82.9353 240° Southwest  Level FlightAware Approximate
Tue 19:13:00 41.1586 -82.9802 240° Southwest  Level FlightAware Approximate
Tue 19:14:00 41.1428 -83.0275 251° West  Level FlightAware Approximate
Tue 19:15:00 41.1299 -83.0765 251° West  Level FlightAware Approximate
Tue 19:16:00 41.1170 -83.1255 251° West  Level FlightAware Approximate
Tue 19:17:00 41.1040 -83.1744 251° West  Level FlightAware Approximate
Tue 19:18:00 41.0911 -83.2234 251° West  Level FlightAware Approximate
Tue 19:19:00 41.0781 -83.2723 251° West  Level FlightAware Approximate
Tue 19:20:00 41.0633 -83.3200 248° West  Level FlightAware Approximate
Tue 19:21:00 41.0484 -83.3676 248° West  Level FlightAware Approximate
Tue 19:22:00 41.0335 -83.4152 248° West  Level FlightAware Approximate
Tue 19:22:46 41.0167 -83.4692 247° West 136 157 3,900  Level Indianapolis Center
Tue 19:23:00 41.0186 -83.4628 247° West  Level FlightAware Approximate
Tue 19:23:48 40.9978 -83.5158 242° Southwest 139 160 4,000  Level Indianapolis Center
Tue 19:24:00 41.0037 -83.5103 247° West  Level FlightAware Approximate
Tue 19:24:49 40.9794 -83.5608 242° Southwest 138 159 3,900  Level Indianapolis Center
Tue 19:25:00 40.9888 -83.5579 247° West  Level FlightAware Approximate
Tue 19:25:51 40.9603 -83.6089 242° Southwest 145 167 3,900  Level Indianapolis Center
Tue 19:26:00 40.9739 -83.6054 247° West  Level FlightAware Approximate
Tue 19:26:52 40.9375 -83.6592 239° Southwest 141 162 4,000  Level Indianapolis Center
Tue 19:27:00 40.9589 -83.6528 247° West  Level FlightAware Approximate
Tue 19:27:54 40.9200 -83.7078 245° Southwest 141 162 4,000  Level Indianapolis Center
Tue 19:28:00 40.9439 -83.7003 247° West  Level FlightAware Approximate
Tue 19:28:55 40.9022 -83.7572 245° Southwest 141 162 4,000  Level Indianapolis Center
Tue 19:29:56 40.8844 -83.8017 242° Southwest 147 169 4,000  Level Indianapolis Center
Tue 19:30:58 40.8642 -83.8506 241° Southwest 150 173 4,000  Level Indianapolis Center
Tue 19:31:59 40.8444 -83.8956 240° Southwest 146 168 4,000  Level Indianapolis Center
Tue 19:33:01 40.8258 -83.9428 242° Southwest 144 166 4,000  Level Indianapolis Center
Tue 19:34:02 40.8072 -83.9903 243° Southwest 144 166 4,000  Level Indianapolis Center
Tue 19:35:04 40.7886 -84.0339 241° Southwest 144 166 4,000 112 Level Indianapolis Center
Tue 19:37:00 40.7529 -84.1212 240° Southwest  Level Estimated
Tue 19:41:12 40.6733 -84.3214 241° Southwest 139 160 4,800  Level Indianapolis Center
Tue 19:42:13 40.6583 -84.3594 243° Southwest 118 136 5,000 98 Climbing Indianapolis Center
Tue 19:43:14 40.6467 -84.4058 252° West 125 144 5,000  Level Indianapolis Center
Tue 19:44:00 40.6592 -84.4651 241° Southwest  Level FlightAware Approximate
Tue 19:44:17 40.6344 -84.4531 251° West 128 147 5,000  Level Chicago Center
Tue 19:45:00 40.6405 -84.5100 241° Southwest  Level FlightAware Approximate
Tue 19:45:17 40.6206 -84.5031 250° West 136 157 5,000  Level Indianapolis Center
Tue 19:46:00 40.6218 -84.5549 241° Southwest  Level FlightAware Approximate
Tue 19:46:18 40.5978 -84.5475 236° Southwest 140 161 5,000  Level Indianapolis Center
Tue 19:47:20 40.5775 -84.5933 240° Southwest 142 163 4,900  Descending Indianapolis Center
Tue 19:48:21 40.5575 -84.6394 240° Southwest 143 165 5,000 49 Climbing Indianapolis Center
Tue 19:49:22 40.5386 -84.6853 242° Southwest 143 165 5,000 -32 Level Indianapolis Center
Tue 19:51:31 40.4978 -84.7800 240° Southwest 141 162 4,900  Descending Chicago Center
Tue 19:52:32 40.4781 -84.8244 240° Southwest 141 162 5,000 49 Climbing Chicago Center
Tue 19:53:34 40.4597 -84.8692 242° Southwest 141 162 5,000  Level Chicago Center
Tue 19:54:36 40.4408 -84.9150 242° Southwest 141 162 5,000  Level Chicago Center
Tue 19:55:38 40.4194 -84.9628 240° Southwest 141 162 5,000  Level Chicago Center
Tue 19:57:05 40.3914 -85.0297 241° Southwest 145 167 5,000  Level Chicago Center
Tue 19:58:07 40.3736 -85.0719 241° Southwest 132 152 5,000  Level Chicago Center
Tue 19:59:09 40.3567 -85.1153 243° Southwest 132 152 5,000  Level Chicago Center
Tue 20:00:10 40.3378 -85.1594 241° Southwest 135 155 5,000  Level Chicago Center
Tue 20:01:12 40.3167 -85.2064 239° Southwest 136 157 5,000  Level Chicago Center
Tue 20:02:14 40.2986 -85.2475 240° Southwest 139 160 5,000  Level Chicago Center
Tue 20:03:16 40.2764 -85.2983 240° Southwest 137 158 5,000 -48 Level Chicago Center
Tue 20:04:18 40.2589 -85.3419 242° Southwest 136 157 4,900  Descending Chicago Center
Tue 20:04:39 40.2500 -85.3667 245° Southwest 134 154 5,000  Climbing Indianapolis TRACON
Tue 20:05:20 40.2417 -85.3861 241° Southwest 136 157 4,900  Descending Chicago Center
Tue 20:06:21 40.2228 -85.4281 239° Southwest 136 157 5,000  Climbing Chicago Center
Tue 20:07:23 40.2042 -85.4722 241° Southwest 136 157 4,900  Descending Chicago Center
Tue 20:08:25 40.1819 -85.5219 240° Southwest 138 159 5,000 -97 Climbing Chicago Center
Tue 20:09:27 40.1625 -85.5594 236° Southwest 138 159 4,700 -319 Descending Chicago Center
Tue 20:11:33 40.1167 -85.6833 244° Southwest 153 176 4,000 -233 Descending Indianapolis TRACON
Tue 20:12:27 40.1000 -85.7333 246° West 144 166 4,000  Level Indianapolis TRACON
Tue 20:13:27 40.1000 -85.7833 270° West 147 169 4,000  Level Indianapolis TRACON
Tue 20:14:21 40.0833 -85.8333 246° West 147 169 4,000 -53 Level Indianapolis TRACON
Tue 20:15:21 40.0833 -85.8833 270° West 144 166 3,900 -50 Descending Indianapolis TRACON
Tue 20:16:21 40.0667 -85.9333 246° West 152 175 3,900  Level Indianapolis TRACON
Tue 20:17:21 40.0500 -85.9833 246° West 154 177 3,900 -150 Level Indianapolis TRACON
Tue 20:18:21 40.0500 -86.0333 270° West 151 174 3,600 -500 Descending Indianapolis TRACON
Tue 20:19:21 40.0333 -86.1000 252° West 171 197 2,900 -368 Descending Indianapolis TRACON
Tue 20:20:15 40.0167 -86.1333 237° Southwest 156 180 2,900  Level Indianapolis TRACON
Tue 20:21:09 39.9833 -86.1833 229° Southwest 149 171 2,900  Level Indianapolis TRACON

Login

Don't have an account? Register now (free) for customized features, flight alerts, and more!